Time,TemperatureF,DewpointF,PressureIn,WindDirection,WindDirectionDegrees,WindSpeedMPH,WindSpeedGustMPH,Humidity,HourlyPrecipIn,Conditions,Clouds,dailyrainin,SoftwareType,DateUTC
2013-07-06 00:01:00,71.1,69.9,30.07,SSW,194,1.0,2.0,96,0.00,,,0.00,Wunderground v.1.15,2013-07-06 04:01:00,
2013-07-06 00:02:00,71.1,69.9,30.07,SSW,194,0.0,2.0,96,0.00,,,0.00,Wunderground v.1.15,2013-07-06 04:02:00,
2013-07-06 00:05:00,71.0,69.8,30.08,SSW,194,0.0,2.0,96,0.00,,,0.00,Wunderground v.1.15,2013-07-06 04:05:00,
2013-07-06 00:06:00,71.0,69.8,30.08,SSW,194,0.0,2.0,96,0.00,,,0.00,Wunderground v.1.15,2013-07-06 04:06:00,
2013-07-06 00:09:00,70.9,69.7,30.08,SSW,194,0.0,2.0,96,0.00,,,0.00,Wunderground v.1.15,2013-07-06 04:09:00,
2013-07-06 00:15:00,70.8,69.6,30.08,SSW,194,1.0,2.0,96,0.00,,,0.00,Wunderground v.1.15,2013-07-06 04:15:00,
2013-07-06 00:20:00,70.6,69.4,30.08,SSW,194,1.0,1.0,96,0.00,,,0.00,Wunderground v.1.15,2013-07-06 04:20:00,
2013-07-06 00:25:00,70.4,69.2,30.08,SSW,194,1.0,2.0,96,0.00,,,0.00,Wunderground v.1.15,2013-07-06 04:25:00,
2013-07-06 00:30:00,70.4,69.5,30.08,SSW,194,1.0,1.0,97,0.00,,,0.00,Wunderground v.1.15,2013-07-06 04:30:00,
2013-07-06 00:35:00,70.3,69.4,30.08,SSW,194,0.0,2.0,97,0.00,,,0.00,Wunderground v.1.15,2013-07-06 04:35:00,
2013-07-06 00:40:00,70.2,69.3,30.08,SSW,194,0.0,2.0,97,0.00,,,0.00,Wunderground v.1.15,2013-07-06 04:40:00,
2013-07-06 00:45:00,70.2,69.3,30.08,SSW,194,0.0,2.0,97,0.00,,,0.00,Wunderground v.1.15,2013-07-06 04:45:00,
2013-07-06 00:50:00,69.9,69.0,30.07,SSW,194,0.0,2.0,97,0.00,,,0.00,Wunderground v.1.15,2013-07-06 04:50:00,
2013-07-06 00:55:00,69.7,68.8,30.07,SSW,194,0.0,2.0,97,0.00,,,0.00,Wunderground v.1.15,2013-07-06 04:55:00,
2013-07-06 01:00:00,69.7,68.8,30.07,SSW,194,0.0,2.0,97,0.00,,,0.00,Wunderground v.1.15,2013-07-06 05:00:00,
2013-07-06 01:05:00,69.8,68.9,30.07,SSW,194,0.0,2.0,97,0.00,,,0.00,Wunderground v.1.15,2013-07-06 05:05:00,
2013-07-06 01:11:00,70.0,69.4,30.07,SSW,194,0.0,2.0,98,0.00,,,0.00,Wunderground v.1.15,2013-07-06 05:11:00,
2013-07-06 01:16:00,70.1,69.5,30.07,SSW,194,0.0,2.0,98,0.00,,,0.00,Wunderground v.1.15,2013-07-06 05:16:00,
2013-07-06 01:21:00,70.3,69.7,30.07,SSW,194,0.0,2.0,98,0.00,,,0.00,Wunderground v.1.15,2013-07-06 05:21:00,
2013-07-06 01:26:00,70.3,69.7,30.07,SSW,194,1.0,2.0,98,0.00,,,0.00,Wunderground v.1.15,2013-07-06 05:26:00,
2013-07-06 01:31:00,70.4,69.8,30.07,SSW,194,1.0,2.0,98,0.00,,,0.00,Wunderground v.1.15,2013-07-06 05:31:00,
2013-07-06 01:37:00,70.5,69.9,30.07,SSW,194,1.0,2.0,98,0.00,,,0.00,Wunderground v.1.15,2013-07-06 05:37:00,
2013-07-06 01:42:00,70.4,69.8,30.07,SSW,194,1.0,2.0,98,0.00,,,0.00,Wunderground v.1.15,2013-07-06 05:42:00,
2013-07-06 01:47:00,70.3,69.4,30.07,SSW,194,1.0,2.0,97,0.00,,,0.00,Wunderground v.1.15,2013-07-06 05:47:00,
2013-07-06 01:52:00,70.2,69.3,30.07,SSW,194,1.0,2.0,97,0.00,,,0.00,Wunderground v.1.15,2013-07-06 05:52:00,
2013-07-06 01:57:00,70.1,69.2,30.07,SSW,194,1.0,2.0,97,0.00,,,0.00,Wunderground v.1.15,2013-07-06 05:57:00,
2013-07-06 02:03:00,70.1,69.2,30.07,SSW,194,0.0,2.0,97,0.00,,,0.00,Wunderground v.1.15,2013-07-06 06:03:00,
2013-07-06 02:08:00,70.0,69.1,30.07,SSW,194,0.0,2.0,97,0.00,,,0.00,Wunderground v.1.15,2013-07-06 06:08:00,
2013-07-06 02:13:00,70.1,69.2,30.07,SW,230,0.0,2.0,97,0.00,,,0.01,Wunderground v.1.15,2013-07-06 06:13:00,
2013-07-06 02:18:00,70.0,69.1,30.08,WNW,284,1.0,3.0,97,0.00,,,0.01,Wunderground v.1.15,2013-07-06 06:18:00,
2013-07-06 02:23:00,69.5,68.6,30.08,WNW,284,1.0,2.0,97,0.00,,,0.01,Wunderground v.1.15,2013-07-06 06:23:00,
2013-07-06 02:29:00,69.7,68.8,30.08,WNW,284,0.0,2.0,97,0.00,,,0.01,Wunderground v.1.15,2013-07-06 06:29:00,
2013-07-06 02:34:00,69.8,68.9,30.08,West,265,0.0,2.0,97,0.00,,,0.01,Wunderground v.1.15,2013-07-06 06:34:00,
2013-07-06 02:39:00,69.9,69.0,30.08,SW,227,0.0,2.0,97,0.00,,,0.01,Wunderground v.1.15,2013-07-06 06:39:00,
2013-07-06 02:44:00,69.9,69.0,30.08,SW,233,1.0,2.0,97,0.00,,,0.01,Wunderground v.1.15,2013-07-06 06:44:00,
2013-07-06 02:49:00,70.0,69.1,30.07,WSW,243,1.0,2.0,97,0.00,,,0.01,Wunderground v.1.15,2013-07-06 06:49:00,
2013-07-06 02:54:00,70.0,69.1,30.07,WSW,242,1.0,2.0,97,0.00,,,0.01,Wunderground v.1.15,2013-07-06 06:54:00,
2013-07-06 02:59:00,70.0,69.1,30.08,WSW,241,1.0,2.0,97,0.00,,,0.01,Wunderground v.1.15,2013-07-06 06:59:00,
2013-07-06 03:04:00,69.9,69.0,30.08,West,260,1.0,2.0,97,0.00,,,0.01,Wunderground v.1.15,2013-07-06 07:04:00,
2013-07-06 03:09:00,69.9,69.0,30.08,SW,221,1.0,2.0,97,0.00,,,0.01,Wunderground v.1.15,2013-07-06 07:09:00,
2013-07-06 03:14:00,70.1,68.9,30.08,SW,220,1.0,2.0,96,0.00,,,0.01,Wunderground v.1.15,2013-07-06 07:14:00,
2013-07-06 03:19:00,70.3,69.1,30.08,West,276,2.0,4.0,96,0.00,,,0.01,Wunderground v.1.15,2013-07-06 07:19:00,
2013-07-06 03:25:00,70.4,69.2,30.07,West,273,2.0,2.0,96,0.00,,,0.01,Wunderground v.1.15,2013-07-06 07:25:00,
2013-07-06 03:30:00,70.3,68.8,30.08,West,269,2.0,2.0,95,0.00,,,0.01,Wunderground v.1.15,2013-07-06 07:30:00,
2013-07-06 03:35:00,70.3,68.8,30.08,West,276,1.0,2.0,95,0.00,,,0.01,Wunderground v.1.15,2013-07-06 07:35:00,
2013-07-06 03:40:00,70.2,68.7,30.08,WSW,244,1.0,1.0,95,0.00,,,0.01,Wunderground v.1.15,2013-07-06 07:40:00,
2013-07-06 03:45:00,70.3,68.8,30.08,SW,227,1.0,2.0,95,0.00,,,0.01,Wunderground v.1.15,2013-07-06 07:45:00,
2013-07-06 03:51:00,70.4,68.9,30.08,SW,218,1.0,2.0,95,0.00,,,0.01,Wunderground v.1.15,2013-07-06 07:51:00,
2013-07-06 03:57:00,70.4,68.9,30.08,SW,225,1.0,2.0,95,0.00,,,0.01,Wunderground v.1.15,2013-07-06 07:57:00,
2013-07-06 04:02:00,70.3,68.8,30.08,SW,225,1.0,2.0,95,0.00,,,0.01,Wunderground v.1.15,2013-07-06 08:02:00,
2013-07-06 04:07:00,70.3,68.8,30.08,SW,228,1.0,2.0,95,0.00,,,0.01,Wunderground v.1.15,2013-07-06 08:07:00,
2013-07-06 04:13:00,70.1,68.6,30.08,SW,233,0.0,2.0,95,0.00,,,0.01,Wunderground v.1.15,2013-07-06 08:13:00,
2013-07-06 04:18:00,69.9,68.4,30.08,SW,233,0.0,2.0,95,0.00,,,0.01,Wunderground v.1.15,2013-07-06 08:18:00,
2013-07-06 04:23:00,69.8,68.3,30.08,SW,233,0.0,2.0,95,0.00,,,0.01,Wunderground v.1.15,2013-07-06 08:23:00,
2013-07-06 04:28:00,69.8,68.6,30.08,SW,218,1.0,2.0,96,0.00,,,0.01,Wunderground v.1.15,2013-07-06 08:28:00,
2013-07-06 04:33:00,69.7,68.5,30.08,SW,223,1.0,2.0,96,0.00,,,0.01,Wunderground v.1.15,2013-07-06 08:33:00,
2013-07-06 04:39:00,69.7,68.5,30.08,SW,223,2.0,2.0,96,0.00,,,0.01,Wunderground v.1.15,2013-07-06 08:39:00,
2013-07-06 04:44:00,69.7,68.5,30.08,SW,219,2.0,3.0,96,0.00,,,0.01,Wunderground v.1.15,2013-07-06 08:44:00,
2013-07-06 04:49:00,69.7,68.5,30.08,SW,221,2.0,3.0,96,0.00,,,0.01,Wunderground v.1.15,2013-07-06 08:49:00,
2013-07-06 04:54:00,69.7,68.5,30.08,SW,217,1.0,3.0,96,0.00,,,0.01,Wunderground v.1.15,2013-07-06 08:54:00,
2013-07-06 04:59:00,69.7,68.5,30.08,SW,218,2.0,3.0,96,0.00,,,0.01,Wunderground v.1.15,2013-07-06 08:59:00,
2013-07-06 05:04:00,69.6,68.1,30.08,SW,232,2.0,3.0,95,0.00,,,0.01,Wunderground v.1.15,2013-07-06 09:04:00,
2013-07-06 05:09:00,69.6,68.1,30.09,SW,223,2.0,4.0,95,0.00,,,0.01,Wunderground v.1.15,2013-07-06 09:09:00,
2013-07-06 05:14:00,69.5,68.0,30.08,SSW,210,2.0,2.0,95,0.00,,,0.01,Wunderground v.1.15,2013-07-06 09:14:00,
2013-07-06 05:19:00,69.5,67.7,30.08,SW,214,2.0,3.0,94,0.00,,,0.01,Wunderground v.1.15,2013-07-06 09:19:00,
2013-07-06 05:24:00,69.4,67.6,30.09,SW,218,2.0,3.0,94,0.00,,,0.01,Wunderground v.1.15,2013-07-06 09:24:00,
2013-07-06 05:29:00,69.3,67.5,30.09,WSW,248,2.0,3.0,94,0.00,,,0.01,Wunderground v.1.15,2013-07-06 09:29:00,
2013-07-06 05:35:00,69.2,67.4,30.09,WSW,238,2.0,2.0,94,0.00,,,0.01,Wunderground v.1.15,2013-07-06 09:35:00,
2013-07-06 05:40:00,69.2,67.4,30.09,SSW,213,2.0,2.0,94,0.00,,,0.01,Wunderground v.1.15,2013-07-06 09:40:00,
2013-07-06 05:45:00,69.2,67.4,30.09,WSW,247,2.0,3.0,94,0.00,,,0.01,Wunderground v.1.15,2013-07-06 09:45:00,
2013-07-06 05:50:00,69.2,67.4,30.09,WSW,242,2.0,2.0,94,0.00,,,0.01,Wunderground v.1.15,2013-07-06 09:50:00,
2013-07-06 05:55:00,69.3,67.5,30.09,WSW,255,2.0,3.0,94,0.00,,,0.01,Wunderground v.1.15,2013-07-06 09:55:00,
2013-07-06 06:01:00,69.4,67.6,30.09,SSW,213,2.0,3.0,94,0.00,,,0.01,Wunderground v.1.15,2013-07-06 10:01:00,
2013-07-06 06:06:00,69.4,67.6,30.10,SSW,208,2.0,3.0,94,0.00,,,0.01,Wunderground v.1.15,2013-07-06 10:06:00,
2013-07-06 06:11:00,69.4,67.6,30.09,SW,223,2.0,2.0,94,0.00,,,0.01,Wunderground v.1.15,2013-07-06 10:11:00,
2013-07-06 06:16:00,69.4,67.6,30.09,SW,232,1.0,2.0,94,0.00,,,0.01,Wunderground v.1.15,2013-07-06 10:16:00,
2013-07-06 06:21:00,69.5,67.7,30.10,SW,229,2.0,2.0,94,0.00,,,0.01,Wunderground v.1.15,2013-07-06 10:21:00,
2013-07-06 06:26:00,69.8,67.7,30.10,SW,232,2.0,2.0,93,0.00,,,0.01,Wunderground v.1.15,2013-07-06 10:26:00,
2013-07-06 06:31:00,69.9,67.8,30.10,SW,234,2.0,2.0,93,0.00,,,0.01,Wunderground v.1.15,2013-07-06 10:31:00,
2013-07-06 06:37:00,70.1,68.0,30.10,West,263,2.0,3.0,93,0.00,,,0.01,Wunderground v.1.15,2013-07-06 10:37:00,
2013-07-06 06:42:00,70.3,68.2,30.10,West,276,2.0,2.0,93,0.00,,,0.01,Wunderground v.1.15,2013-07-06 10:42:00,
2013-07-06 06:47:00,70.4,68.3,30.10,West,263,2.0,2.0,93,0.00,,,0.01,Wunderground v.1.15,2013-07-06 10:47:00,
2013-07-06 06:52:00,70.5,68.1,30.10,West,259,2.0,2.0,92,0.00,,,0.01,Wunderground v.1.15,2013-07-06 10:52:00,
2013-07-06 06:57:00,70.7,68.3,30.10,WSW,241,2.0,4.0,92,0.00,,,0.01,Wunderground v.1.15,2013-07-06 10:57:00,
2013-07-06 07:02:00,71.0,68.6,30.10,SSW,202,2.0,5.0,92,0.00,,,0.01,Wunderground v.1.15,2013-07-06 11:02:00,
2013-07-06 07:07:00,71.4,69.0,30.10,West,281,2.0,6.0,92,0.00,,,0.01,Wunderground v.1.15,2013-07-06 11:07:00,
2013-07-06 07:12:00,71.6,68.8,30.10,WSW,250,3.0,4.0,91,0.00,,,0.01,Wunderground v.1.15,2013-07-06 11:12:00,
2013-07-06 07:17:00,71.7,68.9,30.11,West,281,3.0,4.0,91,0.00,,,0.01,Wunderground v.1.15,2013-07-06 11:17:00,
2013-07-06 07:23:00,71.6,68.5,30.10,West,276,3.0,7.0,90,0.00,,,0.01,Wunderground v.1.15,2013-07-06 11:23:00,
2013-07-06 07:28:00,71.5,68.4,30.11,West,277,3.0,7.0,90,0.00,,,0.01,Wunderground v.1.15,2013-07-06 11:28:00,
2013-07-06 07:33:00,71.3,68.5,30.11,WSW,254,2.0,4.0,91,0.00,,,0.01,Wunderground v.1.15,2013-07-06 11:33:00,
2013-07-06 07:38:00,71.5,68.7,30.11,West,274,2.0,4.0,91,0.00,,,0.01,Wunderground v.1.15,2013-07-06 11:38:00,
2013-07-06 07:43:00,71.7,68.6,30.11,WSW,240,3.0,4.0,90,0.00,,,0.01,Wunderground v.1.15,2013-07-06 11:43:00,
2013-07-06 07:49:00,71.8,68.7,30.11,WSW,252,2.0,4.0,90,0.00,,,0.01,Wunderground v.1.15,2013-07-06 11:49:00,
2013-07-06 07:54:00,71.9,68.8,30.11,WSW,253,2.0,4.0,90,0.00,,,0.01,Wunderground v.1.15,2013-07-06 11:54:00,
2013-07-06 07:59:00,71.9,68.8,30.11,SW,235,2.0,4.0,90,0.00,,,0.01,Wunderground v.1.15,2013-07-06 11:59:00,
2013-07-06 08:04:00,72.0,68.9,30.11,SW,218,2.0,4.0,90,0.00,,,0.01,Wunderground v.1.15,2013-07-06 12:04:00,
2013-07-06 08:09:00,72.1,68.7,30.11,West,263,2.0,4.0,89,0.00,,,0.01,Wunderground v.1.15,2013-07-06 12:09:00,
2013-07-06 08:15:00,72.1,69.0,30.11,West,281,2.0,4.0,90,0.00,,,0.01,Wunderground v.1.15,2013-07-06 12:15:00,
2013-07-06 08:20:00,72.3,68.9,30.11,WSW,246,2.0,4.0,89,0.00,,,0.01,Wunderground v.1.15,2013-07-06 12:20:00,
2013-07-06 08:25:00,72.3,68.9,30.11,West,260,2.0,4.0,89,0.00,,,0.01,Wunderground v.1.15,2013-07-06 12:25:00,
2013-07-06 08:30:00,72.4,69.3,30.11,West,271,2.0,4.0,90,0.00,,,0.01,Wunderground v.1.15,2013-07-06 12:30:00,
2013-07-06 08:35:00,72.6,69.2,30.11,West,262,1.0,4.0,89,0.00,,,0.01,Wunderground v.1.15,2013-07-06 12:35:00,
2013-07-06 08:40:00,72.6,68.8,30.11,WSW,255,2.0,4.0,88,0.00,,,0.01,Wunderground v.1.15,2013-07-06 12:40:00,
2013-07-06 08:45:00,72.8,69.4,30.11,SW,217,2.0,4.0,89,0.00,,,0.01,Wunderground v.1.15,2013-07-06 12:45:00,
2013-07-06 08:51:00,73.0,68.9,30.11,WSW,238,2.0,4.0,87,0.00,,,0.01,Wunderground v.1.15,2013-07-06 12:51:00,
2013-07-06 08:56:00,73.3,69.9,30.11,WSW,252,2.0,4.0,89,0.00,,,0.01,Wunderground v.1.15,2013-07-06 12:56:00,
2013-07-06 09:01:00,73.6,69.8,30.11,WSW,252,2.0,4.0,88,0.00,,,0.01,Wunderground v.1.15,2013-07-06 13:01:00,
2013-07-06 09:06:00,73.5,69.1,30.11,SW,218,2.0,5.0,86,0.00,,,0.01,Wunderground v.1.15,2013-07-06 13:06:00,
2013-07-06 09:12:00,73.9,69.8,30.12,West,279,3.0,4.0,87,0.00,,,0.01,Wunderground v.1.15,2013-07-06 13:12:00,
2013-07-06 09:17:00,74.8,70.7,30.12,West,261,3.0,4.0,87,0.00,,,0.01,Wunderground v.1.15,2013-07-06 13:17:00,
2013-07-06 09:22:00,75.2,70.4,30.12,SSW,205,3.0,4.0,85,0.00,,,0.01,Wunderground v.1.15,2013-07-06 13:22:00,
2013-07-06 09:27:00,75.2,70.0,30.11,West,273,3.0,4.0,84,0.00,,,0.01,Wunderground v.1.15,2013-07-06 13:27:00,
2013-07-06 09:32:00,75.5,69.6,30.12,West,274,3.0,5.0,82,0.00,,,0.01,Wunderground v.1.15,2013-07-06 13:32:00,
2013-07-06 09:37:00,75.8,70.6,30.12,North,355,3.0,5.0,84,0.00,,,0.01,Wunderground v.1.15,2013-07-06 13:37:00,
2013-07-06 09:42:00,76.0,70.5,30.12,West,279,2.0,5.0,83,0.00,,,0.01,Wunderground v.1.15,2013-07-06 13:42:00,
2013-07-06 09:47:00,76.4,70.9,30.12,WSW,257,2.0,5.0,83,0.00,,,0.01,Wunderground v.1.15,2013-07-06 13:47:00,
2013-07-06 09:50:00,76.4,70.5,30.12,SW,219,2.0,4.0,82,0.00,,,0.01,Wunderground v.1.15,2013-07-06 13:50:00,
2013-07-06 09:55:00,76.5,70.2,30.11,WSW,244,2.0,4.0,81,0.00,,,0.01,Wunderground v.1.15,2013-07-06 13:55:00,
2013-07-06 10:00:00,76.9,70.3,30.11,West,277,2.0,4.0,80,0.00,,,0.01,Wunderground v.1.15,2013-07-06 14:00:00,
2013-07-06 10:05:00,76.9,69.1,30.11,NW,307,3.0,5.0,77,0.00,,,0.01,Wunderground v.1.15,2013-07-06 14:05:00,
2013-07-06 10:10:00,77.3,69.1,30.11,West,265,3.0,5.0,76,0.00,,,0.01,Wunderground v.1.15,2013-07-06 14:10:00,
2013-07-06 10:15:00,77.3,69.9,30.11,West,281,3.0,5.0,78,0.00,,,0.01,Wunderground v.1.15,2013-07-06 14:15:00,
2013-07-06 10:21:00,77.8,68.8,30.11,WSW,258,2.0,5.0,74,0.00,,,0.01,Wunderground v.1.15,2013-07-06 14:21:00,
2013-07-06 10:26:00,78.3,70.5,30.11,West,273,2.0,5.0,77,0.00,,,0.01,Wunderground v.1.15,2013-07-06 14:26:00,
2013-07-06 10:31:00,78.1,68.7,30.11,SW,227,2.0,4.0,73,0.00,,,0.01,Wunderground v.1.15,2013-07-06 14:31:00,
2013-07-06 10:36:00,78.3,70.9,30.11,NW,315,2.0,4.0,78,0.00,,,0.01,Wunderground v.1.15,2013-07-06 14:36:00,
2013-07-06 10:41:00,78.5,69.9,30.11,West,259,2.0,4.0,75,0.00,,,0.01,Wunderground v.1.15,2013-07-06 14:41:00,
2013-07-06 10:47:00,78.4,69.0,30.11,WSW,249,3.0,5.0,73,0.00,,,0.01,Wunderground v.1.15,2013-07-06 14:47:00,
2013-07-06 10:52:00,78.5,68.3,30.11,South,188,3.0,6.0,71,0.00,,,0.01,Wunderground v.1.15,2013-07-06 14:52:00,
2013-07-06 10:57:00,78.7,68.9,30.11,West,271,3.0,6.0,72,0.00,,,0.01,Wunderground v.1.15,2013-07-06 14:57:00,
2013-07-06 11:02:00,79.3,69.5,30.11,NNW,329,3.0,5.0,72,0.00,,,0.01,Wunderground v.1.15,2013-07-06 15:02:00,
2013-07-06 11:07:00,79.2,68.6,30.11,West,262,2.0,5.0,70,0.00,,,0.01,Wunderground v.1.15,2013-07-06 15:07:00,
2013-07-06 11:13:00,79.3,69.1,30.12,NW,323,3.0,4.0,71,0.00,,,0.01,Wunderground v.1.15,2013-07-06 15:13:00,
2013-07-06 11:18:00,79.5,70.5,30.11,NNW,346,2.0,4.0,74,0.00,,,0.01,Wunderground v.1.15,2013-07-06 15:18:00,
2013-07-06 11:23:00,79.7,68.6,30.12,North,5,2.0,4.0,69,0.00,,,0.01,Wunderground v.1.15,2013-07-06 15:23:00,
2013-07-06 11:28:00,79.9,68.4,30.11,WNW,296,2.0,6.0,68,0.00,,,0.01,Wunderground v.1.15,2013-07-06 15:28:00,
2013-07-06 11:33:00,80.2,69.1,30.11,WNW,298,2.0,4.0,69,0.00,,,0.01,Wunderground v.1.15,2013-07-06 15:33:00,
2013-07-06 11:39:00,80.2,69.1,30.11,NNW,343,3.0,4.0,69,0.00,,,0.01,Wunderground v.1.15,2013-07-06 15:39:00,
2013-07-06 11:44:00,80.5,70.2,30.11,NW,304,2.0,4.0,71,0.00,,,0.01,Wunderground v.1.15,2013-07-06 15:44:00,
2013-07-06 11:49:00,80.0,68.1,30.11,East,82,2.0,4.0,67,0.00,,,0.01,Wunderground v.1.15,2013-07-06 15:49:00,
2013-07-06 11:54:00,80.2,69.5,30.11,NNW,327,2.0,7.0,70,0.00,,,0.01,Wunderground v.1.15,2013-07-06 15:54:00,
2013-07-06 11:59:00,79.3,69.5,30.11,NW,311,2.0,7.0,72,0.00,,,0.01,Wunderground v.1.15,2013-07-06 15:59:00,
2013-07-06 12:04:00,80.0,69.7,30.11,North,10,3.0,5.0,71,0.00,,,0.01,Wunderground v.1.15,2013-07-06 16:04:00,
2013-07-06 12:09:00,80.6,69.9,30.11,NNE,15,4.0,5.0,70,0.00,,,0.01,Wunderground v.1.15,2013-07-06 16:09:00,
2013-07-06 12:14:00,80.5,68.1,30.11,ENE,61,3.0,4.0,66,0.00,,,0.01,Wunderground v.1.15,2013-07-06 16:14:00,
2013-07-06 12:20:00,79.6,69.8,30.11,NNE,19,2.0,2.0,72,0.00,,,0.01,Wunderground v.1.15,2013-07-06 16:20:00,
2013-07-06 12:26:00,79.4,67.9,30.11,WNW,298,1.0,4.0,68,0.00,,,0.01,Wunderground v.1.15,2013-07-06 16:26:00,
2013-07-06 12:33:00,81.3,71.0,30.10,North,355,2.0,4.0,71,0.00,,,0.01,Wunderground v.1.15,2013-07-06 16:33:00,
2013-07-06 12:37:00,81.6,68.2,30.10,WNW,290,2.0,4.0,64,0.00,,,0.01,Wunderground v.1.15,2013-07-06 16:37:00,
2013-07-06 12:43:00,81.1,67.3,30.10,West,276,2.0,4.0,63,0.00,,,0.01,Wunderground v.1.15,2013-07-06 16:43:00,
2013-07-06 12:48:00,81.3,67.5,30.10,WNW,297,2.0,4.0,63,0.00,,,0.01,Wunderground v.1.15,2013-07-06 16:48:00,
2013-07-06 12:54:00,80.8,67.9,30.11,NNW,327,2.0,4.0,65,0.00,,,0.01,Wunderground v.1.15,2013-07-06 16:54:00,
2013-07-06 13:01:00,80.2,67.8,30.10,NW,309,2.0,4.0,66,0.00,,,0.01,Wunderground v.1.15,2013-07-06 17:01:00,
2013-07-06 13:06:00,80.7,69.2,30.10,West,263,2.0,4.0,68,0.00,,,0.01,Wunderground v.1.15,2013-07-06 17:06:00,
2013-07-06 13:11:00,81.2,69.2,30.10,SE,138,1.0,3.0,67,0.00,,,0.01,Wunderground v.1.15,2013-07-06 17:11:00,
2013-07-06 13:16:00,81.6,69.1,30.10,West,267,1.0,4.0,66,0.00,,,0.01,Wunderground v.1.15,2013-07-06 17:16:00,
2013-07-06 13:22:00,82.3,69.8,30.10,SSE,156,1.0,4.0,66,0.00,,,0.01,Wunderground v.1.15,2013-07-06 17:22:00,
2013-07-06 13:27:00,82.9,66.6,30.09,West,265,2.0,5.0,58,0.00,,,0.01,Wunderground v.1.15,2013-07-06 17:27:00,
2013-07-06 13:33:00,82.2,66.4,30.09,West,271,2.0,4.0,59,0.00,,,0.01,Wunderground v.1.15,2013-07-06 17:33:00,
2013-07-06 13:39:00,81.7,67.9,30.09,SW,217,3.0,5.0,63,0.00,,,0.01,Wunderground v.1.15,2013-07-06 17:39:00,
2013-07-06 13:44:00,82.0,68.6,30.09,West,266,3.0,5.0,64,0.00,,,0.01,Wunderground v.1.15,2013-07-06 17:44:00,
2013-07-06 13:49:00,82.4,69.4,30.09,WSW,244,3.0,6.0,65,0.00,,,0.01,Wunderground v.1.15,2013-07-06 17:49:00,
2013-07-06 13:55:00,82.8,68.4,30.09,SW,215,3.0,5.0,62,0.00,,,0.01,Wunderground v.1.15,2013-07-06 17:55:00,
2013-07-06 14:00:00,83.0,68.2,30.08,South,179,2.0,2.0,61,0.00,,,0.01,Wunderground v.1.15,2013-07-06 18:00:00,
2013-07-06 14:05:00,83.3,66.0,30.08,South,175,2.0,4.0,56,0.00,,,0.01,Wunderground v.1.15,2013-07-06 18:05:00,
2013-07-06 14:10:00,83.1,67.3,30.08,SE,142,3.0,4.0,59,0.00,,,0.01,Wunderground v.1.15,2013-07-06 18:10:00,
2013-07-06 14:16:00,83.2,67.4,30.08,North,351,2.0,4.0,59,0.00,,,0.01,Wunderground v.1.15,2013-07-06 18:16:00,
2013-07-06 14:21:00,83.4,65.5,30.08,SE,139,2.0,4.0,55,0.00,,,0.01,Wunderground v.1.15,2013-07-06 18:21:00,
2013-07-06 14:26:00,83.6,66.2,30.08,WNW,284,1.0,5.0,56,0.00,,,0.01,Wunderground v.1.15,2013-07-06 18:26:00,
2013-07-06 14:31:00,83.7,68.3,30.08,West,266,2.0,4.0,60,0.00,,,0.01,Wunderground v.1.15,2013-07-06 18:31:00,
2013-07-06 14:36:00,83.9,66.0,30.08,NW,317,2.0,5.0,55,0.00,,,0.01,Wunderground v.1.15,2013-07-06 18:36:00,
2013-07-06 14:41:00,83.3,64.4,30.08,SSW,200,2.0,4.0,53,0.00,,,0.01,Wunderground v.1.15,2013-07-06 18:41:00,
2013-07-06 14:46:00,83.2,66.4,30.08,SW,214,2.0,4.0,57,0.00,,,0.01,Wunderground v.1.15,2013-07-06 18:46:00,
2013-07-06 14:51:00,83.0,68.6,30.07,SSW,212,2.0,4.0,62,0.00,,,0.01,Wunderground v.1.15,2013-07-06 18:51:00,
2013-07-06 14:56:00,83.2,67.4,30.07,WSW,246,2.0,4.0,59,0.00,,,0.01,Wunderground v.1.15,2013-07-06 18:56:00,
2013-07-06 15:01:00,84.0,65.6,30.07,SSE,159,3.0,5.0,54,0.00,,,0.01,Wunderground v.1.15,2013-07-06 19:01:00,
2013-07-06 15:06:00,83.4,65.0,30.07,SE,128,3.0,5.0,54,0.00,,,0.01,Wunderground v.1.15,2013-07-06 19:06:00,
2013-07-06 15:11:00,83.6,67.8,30.07,WSW,257,2.0,4.0,59,0.00,,,0.01,Wunderground v.1.15,2013-07-06 19:11:00,
2013-07-06 15:17:00,84.0,67.1,30.07,NW,326,2.0,4.0,57,0.00,,,0.01,Wunderground v.1.15,2013-07-06 19:17:00,
2013-07-06 15:22:00,83.9,66.0,30.06,WSW,240,2.0,5.0,55,0.00,,,0.01,Wunderground v.1.15,2013-07-06 19:22:00,
2013-07-06 15:29:00,84.0,65.6,30.06,NW,304,2.0,5.0,54,0.00,,,0.01,Wunderground v.1.15,2013-07-06 19:29:00,
2013-07-06 15:34:00,83.9,64.4,30.06,SSE,166,1.0,4.0,52,0.00,,,0.01,Wunderground v.1.15,2013-07-06 19:34:00,
2013-07-06 15:40:00,84.2,66.8,30.06,WSW,250,2.0,4.0,56,0.00,,,0.01,Wunderground v.1.15,2013-07-06 19:40:00,
2013-07-06 15:46:00,84.3,67.9,30.06,WNW,292,2.0,4.0,58,0.00,,,0.01,Wunderground v.1.15,2013-07-06 19:46:00,
2013-07-06 15:51:00,84.8,67.4,30.06,West,273,2.0,4.0,56,0.00,,,0.01,Wunderground v.1.15,2013-07-06 19:51:00,
2013-07-06 15:57:00,84.7,70.2,30.05,WSW,239,2.0,4.0,62,0.00,,,0.01,Wunderground v.1.15,2013-07-06 19:57:00,
2013-07-06 16:02:00,84.6,67.7,30.05,SSW,197,2.0,4.0,57,0.00,,,0.01,Wunderground v.1.15,2013-07-06 20:02:00,
2013-07-06 16:07:00,84.8,69.4,30.05,WNW,302,2.0,4.0,60,0.00,,,0.01,Wunderground v.1.15,2013-07-06 20:07:00,
2013-07-06 16:13:00,85.0,68.1,30.05,SW,223,2.0,4.0,57,0.00,,,0.01,Wunderground v.1.15,2013-07-06 20:13:00,
2013-07-06 16:18:00,85.1,67.1,30.05,WSW,246,2.0,4.0,55,0.00,,,0.01,Wunderground v.1.15,2013-07-06 20:18:00,
2013-07-06 16:23:00,84.8,69.4,30.05,WSW,244,2.0,6.0,60,0.00,,,0.01,Wunderground v.1.15,2013-07-06 20:23:00,
2013-07-06 16:29:00,84.9,69.0,30.04,SSW,211,3.0,6.0,59,0.00,,,0.01,Wunderground v.1.15,2013-07-06 20:29:00,
2013-07-06 16:34:00,84.9,69.5,30.04,West,275,3.0,6.0,60,0.00,,,0.01,Wunderground v.1.15,2013-07-06 20:34:00,
2013-07-06 16:40:00,84.4,69.0,30.04,SSW,213,2.0,4.0,60,0.00,,,0.01,Wunderground v.1.15,2013-07-06 20:40:00,
2013-07-06 16:50:00,84.2,68.8,30.04,West,279,3.0,3.0,60,0.00,,,0.01,Wunderground v.1.15,2013-07-06 20:50:00,
2013-07-06 16:55:00,84.8,69.4,30.04,WNW,288,2.0,4.0,60,0.00,,,0.01,Wunderground v.1.15,2013-07-06 20:55:00,
2013-07-06 17:01:00,85.0,71.5,30.04,West,280,2.0,4.0,64,0.00,,,0.01,Wunderground v.1.15,2013-07-06 21:01:00,
2013-07-06 17:06:00,85.1,69.2,30.03,NW,311,2.0,4.0,59,0.00,,,0.01,Wunderground v.1.15,2013-07-06 21:06:00,
2013-07-06 17:11:00,85.1,70.6,30.03,SSW,207,3.0,4.0,62,0.00,,,0.01,Wunderground v.1.15,2013-07-06 21:11:00,
2013-07-06 17:17:00,85.1,70.1,30.03,WNW,291,2.0,4.0,61,0.00,,,0.01,Wunderground v.1.15,2013-07-06 21:17:00,
2013-07-06 17:22:00,85.0,69.1,30.02,West,259,2.0,4.0,59,0.00,,,0.01,Wunderground v.1.15,2013-07-06 21:22:00,
2013-07-06 17:27:00,85.0,68.1,30.02,WNW,294,2.0,4.0,57,0.00,,,0.01,Wunderground v.1.15,2013-07-06 21:27:00,
2013-07-06 17:34:00,84.8,68.9,30.02,NNW,340,2.0,4.0,59,0.00,,,0.01,Wunderground v.1.15,2013-07-06 21:34:00,
2013-07-06 17:39:00,84.7,69.8,30.02,West,263,2.0,4.0,61,0.00,,,0.01,Wunderground v.1.15,2013-07-06 21:39:00,
2013-07-06 17:45:00,84.8,71.3,30.01,West,269,2.0,4.0,64,0.00,,,0.01,Wunderground v.1.15,2013-07-06 21:45:00,
2013-07-06 17:50:00,84.6,70.1,30.01,SSW,196,2.0,4.0,62,0.00,,,0.01,Wunderground v.1.15,2013-07-06 21:50:00,
2013-07-06 17:56:00,84.4,70.4,30.01,NNW,342,2.0,4.0,63,0.00,,,0.01,Wunderground v.1.15,2013-07-06 21:56:00,
2013-07-06 18:01:00,84.7,71.2,30.01,West,260,2.0,4.0,64,0.00,,,0.01,Wunderground v.1.15,2013-07-06 22:01:00,
2013-07-06 18:06:00,84.8,70.3,30.00,WNW,290,2.0,4.0,62,0.00,,,0.01,Wunderground v.1.15,2013-07-06 22:06:00,
2013-07-06 18:12:00,84.9,69.9,30.00,WNW,302,2.0,4.0,61,0.00,,,0.01,Wunderground v.1.15,2013-07-06 22:12:00,
2013-07-06 18:17:00,84.9,70.9,30.00,NW,319,1.0,4.0,63,0.00,,,0.01,Wunderground v.1.15,2013-07-06 22:17:00,
2013-07-06 18:22:00,84.9,69.5,30.00,NNW,329,2.0,4.0,60,0.00,,,0.01,Wunderground v.1.15,2013-07-06 22:22:00,
2013-07-06 18:28:00,85.0,70.5,30.00,NW,307,1.0,4.0,62,0.00,,,0.01,Wunderground v.1.15,2013-07-06 22:28:00,
2013-07-06 18:33:00,84.9,70.9,30.00,WNW,298,1.0,4.0,63,0.00,,,0.01,Wunderground v.1.15,2013-07-06 22:33:00,
2013-07-06 18:38:00,84.8,71.7,30.00,West,269,1.0,4.0,65,0.00,,,0.01,Wunderground v.1.15,2013-07-06 22:38:00,
2013-07-06 18:43:00,84.7,72.1,30.00,SW,219,1.0,4.0,66,0.00,,,0.01,Wunderground v.1.15,2013-07-06 22:43:00,
2013-07-06 18:49:00,84.3,71.2,30.00,SW,219,1.0,4.0,65,0.00,,,0.01,Wunderground v.1.15,2013-07-06 22:49:00,
2013-07-06 18:54:00,84.1,69.2,30.00,SW,219,1.0,4.0,61,0.00,,,0.01,Wunderground v.1.15,2013-07-06 22:54:00,
2013-07-06 18:59:00,84.4,69.5,30.00,SW,219,1.0,4.0,61,0.00,,,0.01,Wunderground v.1.15,2013-07-06 22:59:00,
2013-07-06 19:04:00,84.3,70.3,30.00,SE,144,0.0,4.0,63,0.00,,,0.01,Wunderground v.1.15,2013-07-06 23:04:00,
2013-07-06 19:09:00,83.9,70.9,30.00,SSE,159,0.0,4.0,65,0.00,,,0.01,Wunderground v.1.15,2013-07-06 23:09:00,
2013-07-06 19:15:00,83.5,70.5,30.00,SSE,158,1.0,4.0,65,0.00,,,0.01,Wunderground v.1.15,2013-07-06 23:15:00,
2013-07-06 19:20:00,83.3,70.8,30.00,SSE,158,1.0,4.0,66,0.00,,,0.01,Wunderground v.1.15,2013-07-06 23:20:00,
2013-07-06 19:25:00,83.0,70.5,30.00,SSE,158,1.0,4.0,66,0.00,,,0.01,Wunderground v.1.15,2013-07-06 23:25:00,
2013-07-06 19:30:00,82.8,70.7,29.99,SSE,158,1.0,4.0,67,0.00,,,0.01,Wunderground v.1.15,2013-07-06 23:30:00,
2013-07-06 19:36:00,82.7,70.2,29.99,SSE,158,1.0,4.0,66,0.00,,,0.01,Wunderground v.1.15,2013-07-06 23:36:00,
2013-07-06 19:41:00,82.7,70.2,29.99,SSE,158,1.0,4.0,66,0.00,,,0.01,Wunderground v.1.15,2013-07-06 23:41:00,
2013-07-06 19:47:00,82.5,72.1,29.99,SSE,158,1.0,4.0,71,0.00,,,0.01,Wunderground v.1.15,2013-07-06 23:47:00,
2013-07-06 19:53:00,82.3,72.0,29.99,SSE,158,1.0,4.0,71,0.00,,,0.01,Wunderground v.1.15,2013-07-06 23:53:00,
2013-07-06 19:58:00,81.6,72.1,29.99,NNE,15,1.0,4.0,73,0.00,,,0.01,Wunderground v.1.15,2013-07-06 23:58:00,
2013-07-06 20:04:00,80.8,72.1,30.00,North,10,2.0,4.0,75,0.00,,,0.01,Wunderground v.1.15,2013-07-07 00:04:00,
2013-07-06 20:09:00,80.3,72.4,30.00,NNE,25,3.0,4.0,77,0.00,,,0.01,Wunderground v.1.15,2013-07-07 00:09:00,
2013-07-06 20:14:00,79.9,72.0,30.00,North,9,4.0,4.0,77,0.00,,,0.01,Wunderground v.1.15,2013-07-07 00:14:00,
2013-07-06 20:19:00,79.6,72.1,30.00,NNE,17,4.0,4.0,78,0.00,,,0.01,Wunderground v.1.15,2013-07-07 00:19:00,
2013-07-06 20:25:00,79.3,72.2,30.00,NNE,17,3.0,4.0,79,0.00,,,0.01,Wunderground v.1.15,2013-07-07 00:25:00,
2013-07-06 20:33:00,78.6,72.3,30.00,NNE,16,2.0,4.0,81,0.00,,,0.01,Wunderground v.1.15,2013-07-07 00:33:00,
2013-07-06 20:38:00,78.3,72.3,30.00,NNE,16,2.0,4.0,82,0.00,,,0.01,Wunderground v.1.15,2013-07-07 00:38:00,
2013-07-06 20:44:00,78.2,71.9,30.00,NNE,22,2.0,4.0,81,0.00,,,0.01,Wunderground v.1.15,2013-07-07 00:44:00,
2013-07-06 20:49:00,78.0,72.1,30.00,NE,34,2.0,4.0,82,0.00,,,0.01,Wunderground v.1.15,2013-07-07 00:49:00,
2013-07-06 20:55:00,77.5,71.6,30.00,NE,49,2.0,4.0,82,0.00,,,0.01,Wunderground v.1.15,2013-07-07 00:55:00,
2013-07-06 21:00:00,77.2,71.6,30.00,NE,40,2.0,4.0,83,0.00,,,0.01,Wunderground v.1.15,2013-07-07 01:00:00,
2013-07-06 21:06:00,77.0,71.4,30.00,NE,45,2.0,4.0,83,0.00,,,0.01,Wunderground v.1.15,2013-07-07 01:06:00,
2013-07-06 21:13:00,76.5,71.3,30.01,NE,45,1.0,4.0,84,0.00,,,0.01,Wunderground v.1.15,2013-07-07 01:13:00,
2013-07-06 21:19:00,75.8,71.3,30.01,NE,45,0.0,4.0,86,0.00,,,0.01,Wunderground v.1.15,2013-07-07 01:19:00,
2013-07-06 21:24:00,75.6,71.8,30.01,NE,45,0.0,4.0,88,0.00,,,0.01,Wunderground v.1.15,2013-07-07 01:24:00,
2013-07-06 21:29:00,75.4,71.6,30.01,NE,45,1.0,4.0,88,0.00,,,0.01,Wunderground v.1.15,2013-07-07 01:29:00,
2013-07-06 21:34:00,75.5,71.4,30.01,NNE,23,2.0,4.0,87,0.00,,,0.01,Wunderground v.1.15,2013-07-07 01:34:00,
2013-07-06 21:40:00,75.5,71.7,30.01,NNE,23,1.0,4.0,88,0.00,,,0.01,Wunderground v.1.15,2013-07-07 01:40:00,
2013-07-06 21:46:00,75.3,71.5,30.02,NNE,23,1.0,4.0,88,0.00,,,0.01,Wunderground v.1.15,2013-07-07 01:46:00,
2013-07-06 21:55:00,74.7,71.6,30.02,NNE,23,0.0,4.0,90,0.00,,,0.01,Wunderground v.1.15,2013-07-07 01:55:00,
2013-07-06 22:00:00,74.5,71.7,30.02,NNE,23,0.0,4.0,91,0.00,,,0.01,Wunderground v.1.15,2013-07-07 02:00:00,
2013-07-06 22:05:00,74.0,71.2,30.02,NNE,23,1.0,4.0,91,0.00,,,0.01,Wunderground v.1.15,2013-07-07 02:05:00,
2013-07-06 22:11:00,73.7,71.2,30.02,NNE,23,1.0,4.0,92,0.00,,,0.01,Wunderground v.1.15,2013-07-07 02:11:00,
2013-07-06 22:16:00,73.6,71.1,30.02,NNE,23,0.0,4.0,92,0.00,,,0.01,Wunderground v.1.15,2013-07-07 02:16:00,
2013-07-06 22:21:00,73.3,70.8,30.02,NNE,23,0.0,4.0,92,0.00,,,0.01,Wunderground v.1.15,2013-07-07 02:21:00,
2013-07-06 22:27:00,73.1,70.6,30.02,NNE,23,0.0,4.0,92,0.00,,,0.01,Wunderground v.1.15,2013-07-07 02:27:00,
2013-07-06 22:32:00,73.2,71.1,30.02,NNE,23,0.0,4.0,93,0.00,,,0.01,Wunderground v.1.15,2013-07-07 02:32:00,
2013-07-06 22:37:00,73.2,71.1,30.03,NNE,23,0.0,4.0,93,0.00,,,0.01,Wunderground v.1.15,2013-07-07 02:37:00,
2013-07-06 22:42:00,73.1,71.3,30.02,NNE,23,0.0,4.0,94,0.00,,,0.01,Wunderground v.1.15,2013-07-07 02:42:00,
2013-07-06 22:48:00,72.9,71.1,30.02,NNE,23,0.0,4.0,94,0.00,,,0.01,Wunderground v.1.15,2013-07-07 02:48:00,
2013-07-06 22:53:00,72.4,70.3,30.02,NNE,23,1.0,4.0,93,0.00,,,0.01,Wunderground v.1.15,2013-07-07 02:53:00,
2013-07-06 22:58:00,72.3,70.5,30.02,NNE,23,1.0,4.0,94,0.00,,,0.01,Wunderground v.1.15,2013-07-07 02:58:00,
2013-07-06 23:04:00,72.5,71.0,30.02,NNE,23,0.0,4.0,95,0.00,,,0.01,Wunderground v.1.15,2013-07-07 03:04:00,
2013-07-06 23:09:00,72.8,71.3,30.02,NNE,23,0.0,4.0,95,0.00,,,0.01,Wunderground v.1.15,2013-07-07 03:09:00,
2013-07-06 23:15:00,72.9,71.4,30.02,NNE,23,0.0,4.0,95,0.00,,,0.01,Wunderground v.1.15,2013-07-07 03:15:00,
2013-07-06 23:20:00,73.0,71.5,30.02,NNE,23,0.0,4.0,95,0.00,,,0.01,Wunderground v.1.15,2013-07-07 03:20:00,
2013-07-06 23:25:00,73.1,71.6,30.02,NNE,23,0.0,4.0,95,0.00,,,0.01,Wunderground v.1.15,2013-07-07 03:25:00,
2013-07-06 23:31:00,73.2,71.7,30.02,NNE,23,0.0,4.0,95,0.00,,,0.01,Wunderground v.1.15,2013-07-07 03:31:00,
2013-07-06 23:37:00,73.2,71.7,30.02,NNE,23,0.0,4.0,95,0.00,,,0.01,Wunderground v.1.15,2013-07-07 03:37:00,
2013-07-06 23:42:00,73.1,71.6,30.02,NNE,23,1.0,4.0,95,0.00,,,0.01,Wunderground v.1.15,2013-07-07 03:42:00,
2013-07-06 23:47:00,73.0,71.5,30.02,NNE,23,0.0,4.0,95,0.00,,,0.01,Wunderground v.1.15,2013-07-07 03:47:00,
2013-07-06 23:52:00,73.0,71.5,30.02,NNE,23,0.0,4.0,95,0.00,,,0.01,Wunderground v.1.15,2013-07-07 03:52:00,
2013-07-06 23:57:00,72.9,71.4,30.02,NNE,23,0.0,4.0,95,0.00,,,0.01,Wunderground v.1.15,2013-07-07 03:57:00,